createdAt,value
2023-02-28T00:03:46.125Z,6.70
2023-02-28T00:08:09.251Z,6.82
2023-02-28T00:12:31.396Z,6.45
2023-02-28T00:16:53.336Z,6.47
2023-02-28T00:21:16.774Z,6.60
2023-02-28T00:25:38.813Z,6.53
2023-02-28T00:30:01.126Z,6.10
2023-02-28T00:34:23.747Z,6.82
2023-02-28T00:38:45.548Z,6.25
2023-02-28T00:43:07.704Z,6.38
2023-02-28T00:47:29.515Z,7.40
2023-02-28T00:51:52.467Z,5.88
2023-02-28T00:56:15.026Z,6.28
2023-02-28T01:00:37.244Z,6.32
2023-02-28T01:04:59.189Z,6.63
2023-02-28T01:09:21.281Z,6.65
2023-02-28T01:13:44.327Z,5.70
2023-02-28T01:18:08.078Z,5.90
2023-02-28T01:22:30.489Z,6.63
2023-02-28T01:26:52.531Z,6.70
2023-02-28T01:31:17.033Z,5.90
2023-02-28T01:35:39.318Z,6.55
2023-02-28T01:40:01.316Z,6.47
2023-02-28T01:45:07.532Z,6.82
2023-02-28T01:49:29.831Z,6.93
2023-02-28T01:54:02.185Z,6.53
2023-02-28T01:58:25.263Z,7.10
2023-02-28T02:02:52.809Z,7.50
2023-02-28T02:07:16.083Z,6.57
2023-02-28T02:11:44.461Z,6.90
2023-02-28T02:16:39.482Z,7.07
2023-02-28T02:21:51.381Z,7.75
2023-02-28T02:27:00.301Z,7.63
2023-02-28T02:31:46.555Z,7.60
2023-02-28T02:36:34.363Z,8.05
2023-02-28T02:41:16.027Z,7.75
2023-02-28T02:45:54.380Z,7.45
2023-02-28T02:50:26.976Z,7.60
2023-02-28T02:54:56.187Z,10.68
2023-02-28T02:59:25.021Z,8.30
2023-02-28T03:03:47.573Z,8.50
2023-02-28T03:08:09.602Z,8.85
2023-02-28T03:12:50.354Z,8.80
2023-02-28T03:17:37.923Z,8.90
2023-02-28T03:22:56.244Z,8.30
2023-02-28T03:28:05.648Z,9.05
2023-02-28T03:32:36.302Z,8.68
2023-02-28T03:37:10.301Z,9.75
2023-02-28T03:42:12.435Z,8.75
2023-02-28T03:46:43.349Z,9.25
2023-02-28T03:51:10.175Z,8.98
2023-02-28T03:55:45.853Z,9.75
2023-02-28T04:00:14.947Z,9.50
2023-02-28T04:04:37.563Z,9.70
2023-02-28T04:09:01.061Z,9.93
2023-02-28T04:13:23.311Z,10.63
2023-02-28T04:17:45.108Z,21.00
2023-02-28T04:22:07.537Z,10.25
2023-02-28T04:26:39.086Z,10.20
2023-02-28T04:31:05.050Z,17.05
2023-02-28T04:35:27.040Z,11.32
2023-02-28T04:39:49.268Z,12.00
2023-02-28T04:44:11.608Z,12.68
2023-02-28T04:48:37.070Z,14.43
2023-02-28T04:52:59.214Z,13.25
2023-02-28T04:57:21.282Z,13.27
2023-02-28T05:01:48.527Z,15.10
2023-02-28T05:06:12.641Z,14.77
2023-02-28T05:10:35.253Z,14.82
2023-02-28T05:14:57.523Z,15.35
2023-02-28T05:19:20.240Z,16.20
2023-02-28T05:23:42.479Z,15.30
2023-02-28T05:28:05.042Z,16.50
2023-02-28T05:32:27.156Z,16.85
2023-02-28T05:36:49.240Z,19.58
2023-02-28T05:41:12.421Z,17.38
2023-02-28T05:45:34.684Z,16.80
2023-02-28T05:49:57.059Z,17.23
2023-02-28T05:54:19.401Z,15.85
2023-02-28T05:58:41.182Z,14.85
2023-02-28T06:03:03.656Z,15.77
2023-02-28T06:07:27.324Z,15.88
2023-02-28T06:11:49.391Z,15.00
2023-02-28T06:16:13.477Z,18.40
2023-02-28T06:20:35.685Z,19.95
2023-02-28T06:24:58.084Z,17.45
2023-02-28T06:29:20.347Z,22.33
2023-02-28T06:33:43.826Z,23.27
2023-02-28T06:38:05.953Z,14.68
2023-02-28T06:42:29.874Z,8.48
2023-02-28T06:46:52.068Z,7.65
2023-02-28T06:51:23.612Z,8.05
2023-02-28T06:55:45.731Z,8.27
2023-02-28T07:00:10.577Z,7.82
2023-02-28T07:04:32.925Z,8.05
2023-02-28T07:08:55.706Z,7.82
2023-02-28T07:13:17.902Z,8.55
2023-02-28T07:17:39.907Z,8.50
2023-02-28T07:22:03.867Z,8.13
2023-02-28T07:26:25.902Z,8.48
2023-02-28T07:30:49.257Z,9.13
2023-02-28T07:35:11.363Z,8.65
2023-02-28T07:39:33.152Z,9.23
2023-02-28T07:43:56.914Z,9.27
2023-02-28T07:48:18.988Z,9.05
2023-02-28T07:52:41.889Z,9.05
2023-02-28T07:57:04.210Z,9.15
2023-02-28T08:01:26.315Z,8.35
2023-02-28T08:05:49.200Z,9.13
2023-02-28T08:10:11.665Z,8.70
2023-02-28T08:14:34.265Z,7.95
2023-02-28T08:18:56.554Z,8.43
2023-02-28T08:23:18.448Z,7.93
2023-02-28T08:27:40.448Z,7.82
2023-02-28T08:32:02.281Z,17.48
2023-02-28T08:36:26.111Z,8.43
2023-02-28T08:40:48.058Z,8.32
2023-02-28T08:45:10.630Z,7.03
2023-02-28T08:49:32.945Z,7.10
2023-02-28T08:54:04.483Z,7.45
2023-02-28T08:58:26.831Z,6.70
2023-02-28T09:02:49.447Z,5.82
2023-02-28T09:07:11.460Z,6.22
2023-02-28T09:11:34.141Z,6.25
2023-02-28T09:16:00.602Z,6.00
2023-02-28T09:20:22.442Z,6.68
2023-02-28T09:24:45.709Z,6.20
2023-02-28T09:29:07.869Z,6.80
2023-02-28T09:33:29.931Z,6.70
2023-02-28T09:37:53.173Z,6.35
2023-02-28T09:42:26.426Z,5.65
2023-02-28T09:46:54.683Z,6.50
2023-02-28T09:51:34.698Z,6.05
2023-02-28T09:56:00.854Z,6.53
2023-02-28T10:00:34.733Z,5.35
2023-02-28T10:05:01.189Z,6.38
2023-02-28T10:09:30.450Z,5.28
2023-02-28T10:14:02.707Z,6.03
2023-02-28T10:18:41.324Z,5.75
2023-02-28T10:23:38.626Z,5.68
2023-02-28T10:28:16.098Z,5.72
2023-02-28T10:32:40.986Z,6.70
2023-02-28T10:37:08.600Z,7.03
2023-02-28T10:41:37.463Z,6.20
2023-02-28T10:46:11.699Z,6.47
2023-02-28T10:50:54.607Z,7.43
2023-02-28T10:55:26.991Z,6.82
2023-02-28T10:59:56.115Z,6.43
2023-02-28T11:04:40.664Z,6.90
2023-02-28T11:09:25.443Z,6.65
2023-02-28T11:13:48.845Z,5.20
2023-02-28T11:18:13.718Z,7.30
2023-02-28T11:22:44.399Z,6.03
2023-02-28T11:27:06.259Z,6.20
2023-02-28T11:31:31.077Z,6.95
2023-02-28T11:35:59.294Z,6.63
2023-02-28T11:40:54.237Z,6.60
2023-02-28T11:46:04.969Z,5.95
2023-02-28T11:51:12.742Z,7.03
2023-02-28T11:55:54.931Z,6.22
2023-02-28T12:01:03.568Z,6.85
2023-02-28T12:06:11.067Z,6.82
2023-02-28T12:11:17.657Z,6.97
2023-02-28T12:15:45.269Z,6.97
2023-02-28T12:20:30.859Z,6.05
2023-02-28T12:25:07.724Z,6.72
2023-02-28T12:29:44.451Z,6.50
2023-02-28T12:34:19.027Z,7.82
2023-02-28T12:38:56.906Z,6.80
2023-02-28T12:43:22.027Z,7.47
2023-02-28T12:47:47.727Z,7.80
2023-02-28T12:52:12.291Z,7.63
2023-02-28T12:57:01.328Z,7.68
2023-02-28T13:01:46.465Z,9.60
2023-02-28T13:06:53.957Z,9.57
2023-02-28T13:11:41.152Z,9.32
2023-02-28T13:16:09.160Z,9.57
2023-02-28T13:20:37.431Z,9.23
2023-02-28T13:24:59.742Z,9.75
2023-02-28T13:29:45.602Z,9.50
2023-02-28T13:34:16.289Z,9.80
2023-02-28T13:39:01.682Z,9.13
2023-02-28T13:44:10.112Z,9.65
2023-02-28T13:48:32.412Z,9.85
2023-02-28T13:53:15.497Z,9.65
2023-02-28T13:58:18.231Z,9.40
2023-02-28T14:03:14.266Z,10.27
2023-02-28T14:07:49.830Z,10.88
2023-02-28T14:12:59.887Z,10.65
2023-02-28T14:17:21.767Z,10.93
2023-02-28T14:22:20.586Z,11.65
2023-02-28T14:28:09.205Z,10.38
2023-02-28T14:33:06.724Z,10.93
2023-02-28T14:37:34.263Z,9.55
2023-02-28T14:41:56.927Z,10.55
2023-02-28T14:46:20.785Z,10.20
2023-02-28T14:50:52.668Z,9.02
2023-02-28T14:55:20.226Z,10.48
2023-02-28T14:59:42.646Z,9.10
2023-02-28T15:04:07.465Z,10.45
2023-02-28T15:08:32.894Z,9.75
2023-02-28T15:12:59.279Z,10.23
2023-02-28T15:17:25.873Z,11.32
2023-02-28T15:21:54.242Z,10.50
2023-02-28T15:26:24.386Z,10.55
2023-02-28T15:31:02.440Z,11.02
2023-02-28T15:35:25.921Z,10.95
2023-02-28T15:39:48.749Z,11.43
2023-02-28T15:44:27.899Z,12.93
2023-02-28T15:48:55.564Z,11.75
2023-02-28T15:53:29.720Z,12.85
2023-02-28T15:57:59.818Z,12.98
2023-02-28T16:02:32.332Z,13.07
2023-02-28T16:07:00.769Z,11.88
2023-02-28T16:11:23.681Z,12.65
2023-02-28T16:15:45.904Z,13.02
2023-02-28T16:20:16.666Z,13.00
2023-02-28T16:24:39.783Z,13.85
2023-02-28T16:29:03.533Z,14.07
2023-02-28T16:33:25.812Z,13.00
2023-02-28T16:37:48.385Z,13.25
2023-02-28T16:42:29.863Z,13.65
2023-02-28T16:46:51.920Z,13.07
2023-02-28T16:51:16.793Z,14.15
2023-02-28T16:55:39.218Z,14.30
2023-02-28T17:00:01.210Z,16.40
2023-02-28T17:04:23.565Z,14.27
2023-02-28T17:08:45.629Z,15.10
2023-02-28T17:13:14.905Z,15.52
2023-02-28T17:17:37.384Z,15.48
2023-02-28T17:21:59.518Z,14.57
2023-02-28T17:26:25.823Z,16.15
2023-02-28T17:30:48.877Z,15.15
2023-02-28T17:35:11.968Z,14.43
2023-02-28T17:39:34.331Z,14.85
2023-02-28T17:43:57.505Z,15.25
2023-02-28T17:48:19.454Z,14.90
2023-02-28T17:52:42.753Z,16.65
2023-02-28T17:57:05.147Z,17.00
2023-02-28T18:01:27.597Z,16.30
2023-02-28T18:05:50.355Z,16.70
2023-02-28T18:10:20.609Z,18.38
2023-02-28T18:14:43.594Z,15.95
2023-02-28T18:19:07.156Z,17.23
2023-02-28T18:23:29.587Z,16.50
2023-02-28T18:27:58.436Z,15.77
2023-02-28T18:32:20.323Z,17.52
2023-02-28T18:36:42.891Z,17.52
2023-02-28T18:41:07.571Z,16.80
2023-02-28T18:45:29.922Z,18.15
2023-02-28T18:49:51.641Z,17.05
2023-02-28T18:54:15.585Z,17.35
2023-02-28T18:58:37.761Z,16.55
2023-02-28T19:02:59.861Z,16.63
2023-02-28T19:07:22.063Z,16.98
2023-02-28T19:11:44.004Z,16.35
2023-02-28T19:16:08.463Z,17.73
2023-02-28T19:20:30.692Z,18.10
2023-02-28T19:25:31.044Z,18.35
2023-02-28T19:31:01.949Z,17.67
2023-02-28T19:35:36.684Z,17.67
2023-02-28T19:46:19.560Z,18.30
2023-02-28T19:51:36.837Z,17.50
2023-02-28T20:02:03.030Z,17.08
2023-02-28T20:12:47.445Z,18.98
2023-02-28T20:23:20.287Z,19.92
2023-02-28T20:28:40.852Z,19.60
2023-02-28T20:33:28.985Z,20.17
2023-02-28T20:37:52.145Z,22.17
2023-02-28T20:42:15.544Z,22.63
2023-02-28T20:46:37.838Z,21.40
2023-02-28T20:51:00.364Z,23.85
2023-02-28T20:55:22.116Z,20.80
2023-02-28T20:59:44.414Z,22.27
2023-02-28T21:04:08.201Z,22.02
2023-02-28T21:08:30.447Z,21.38
2023-02-28T21:12:57.853Z,21.40
2023-02-28T21:17:20.133Z,22.88
2023-02-28T21:21:48.742Z,22.56
2023-02-28T21:26:14.827Z,23.77
2023-02-28T21:30:37.864Z,25.88
2023-02-28T21:35:00.033Z,23.17
2023-02-28T21:39:29.036Z,24.55
2023-02-28T21:43:52.158Z,25.55
2023-02-28T21:48:14.073Z,25.05
2023-02-28T21:52:36.856Z,25.63
2023-02-28T21:56:59.987Z,25.05
2023-02-28T22:01:22.885Z,26.08
2023-02-28T22:05:44.709Z,25.92
2023-02-28T22:10:07.087Z,25.05
2023-02-28T22:14:28.929Z,26.38
2023-02-28T22:18:51.448Z,24.65
2023-02-28T22:23:13.545Z,24.63
2023-02-28T22:27:35.911Z,25.25
2023-02-28T22:31:57.742Z,29.88
2023-02-28T22:36:21.627Z,26.33
2023-02-28T22:40:43.646Z,24.70
2023-02-28T22:45:05.926Z,24.42
2023-02-28T22:49:28.461Z,24.73
2023-02-28T22:53:52.129Z,25.60
2023-02-28T22:58:13.965Z,24.95
2023-02-28T23:02:37.041Z,24.85
2023-02-28T23:06:59.362Z,23.80
2023-02-28T23:11:30.124Z,25.23
2023-02-28T23:15:51.963Z,25.13
2023-02-28T23:20:17.706Z,25.88
2023-02-28T23:24:39.740Z,22.95
2023-02-28T23:29:01.879Z,24.58
2023-02-28T23:33:23.660Z,26.58
2023-02-28T23:37:45.940Z,25.35
2023-02-28T23:42:08.161Z,26.80
2023-02-28T23:46:30.515Z,26.42
2023-02-28T23:50:52.639Z,26.80
2023-02-28T23:55:14.999Z,27.23
2023-02-28T23:59:37.203Z,29.05
